Beaminster, United Kingdom
Current Conditions -  °F | °C
As of 2:50 PM on Thursday 18 Dec 2014 (Local Time) from EGDY Reporting Station
Overcast Overcast  
Wind Chill: 14°   Ceiling: 1800
Heat Index: 14°   Visibility: 6mi
Dew Point: 10°   Wind: 14mph
Humidity: 77%   Direction: 250°WSW
Pressure: 29.88"   Gusts: NA
Location:  50.81°N, 2.74°W
Report Text: EGDY 181450Z AUTO 25012KT 9999 OVC018/// 14/10 Q1012
Loading
Personal Weather Stations






























Interactive Weather Map New forecast layout! Learn more

10-Day Weather Forecast

Advertisements
Track Severe Weather on mobile